sensor_id;sensor_type;location;lat;lon;timestamp;temperature;humidity
19342;DHT22;9807;48.258;12.690;2023-03-11T00:00:44;4.30;99.90
19342;DHT22;9807;48.258;12.690;2023-03-11T00:03:12;4.10;99.90
19342;DHT22;9807;48.258;12.690;2023-03-11T00:05:42;3.80;99.90
19342;DHT22;9807;48.258;12.690;2023-03-11T00:08:23;3.80;99.90
19342;DHT22;9807;48.258;12.690;2023-03-11T00:10:57;3.60;99.90
19342;DHT22;9807;48.258;12.690;2023-03-11T00:13:29;3.40;99.90
19342;DHT22;9807;48.258;12.690;2023-03-11T00:15:58;3.30;99.90
19342;DHT22;9807;48.258;12.690;2023-03-11T00:18:26;3.20;99.90
19342;DHT22;9807;48.258;12.690;2023-03-11T00:20:56;3.10;99.90
19342;DHT22;9807;48.258;12.690;2023-03-11T00:23:22;3.00;99.90
19342;DHT22;9807;48.258;12.690;2023-03-11T00:25:51;3.20;99.90
19342;DHT22;9807;48.258;12.690;2023-03-11T00:28:19;3.10;99.90
19342;DHT22;9807;48.258;12.690;2023-03-11T00:30:49;3.00;99.90
19342;DHT22;9807;48.258;12.690;2023-03-11T00:33:15;3.00;99.90
19342;DHT22;9807;48.258;12.690;2023-03-11T00:35:44;3.00;99.90
19342;DHT22;9807;48.258;12.690;2023-03-11T00:38:13;3.10;99.90
19342;DHT22;9807;48.258;12.690;2023-03-11T00:40:42;3.30;99.90
19342;DHT22;9807;48.258;12.690;2023-03-11T00:43:08;3.20;99.90
19342;DHT22;9807;48.258;12.690;2023-03-11T00:45:39;3.20;99.90
19342;DHT22;9807;48.258;12.690;2023-03-11T00:48:08;3.20;99.90
19342;DHT22;9807;48.258;12.690;2023-03-11T00:50:36;3.20;99.90
19342;DHT22;9807;48.258;12.690;2023-03-11T00:53:05;3.30;99.90
19342;DHT22;9807;48.258;12.690;2023-03-11T00:55:34;3.20;99.90
19342;DHT22;9807;48.258;12.690;2023-03-11T00:58:06;3.10;99.90
19342;DHT22;9807;48.258;12.690;2023-03-11T01:00:33;3.20;99.90
19342;DHT22;9807;48.258;12.690;2023-03-11T01:03:02;3.20;99.90
19342;DHT22;9807;48.258;12.690;2023-03-11T01:05:33;3.00;99.90
19342;DHT22;9807;48.258;12.690;2023-03-11T01:08:02;2.80;99.90
19342;DHT22;9807;48.258;12.690;2023-03-11T01:10:29;2.90;99.90
19342;DHT22;9807;48.258;12.690;2023-03-11T01:12:58;2.90;99.90
19342;DHT22;9807;48.258;12.690;2023-03-11T01:15:30;2.90;99.90
19342;DHT22;9807;48.258;12.690;2023-03-11T01:17:59;2.90;99.90
19342;DHT22;9807;48.258;12.690;2023-03-11T01:20:27;2.90;99.90
19342;DHT22;9807;48.258;12.690;2023-03-11T01:22:57;2.90;99.90
19342;DHT22;9807;48.258;12.690;2023-03-11T01:25:23;2.80;99.90
19342;DHT22;9807;48.258;12.690;2023-03-11T01:27:49;2.70;99.90
19342;DHT22;9807;48.258;12.690;2023-03-11T01:30:19;2.80;99.90
19342;DHT22;9807;48.258;12.690;2023-03-11T01:32:45;2.80;99.90
19342;DHT22;9807;48.258;12.690;2023-03-11T01:35:16;2.60;99.90
19342;DHT22;9807;48.258;12.690;2023-03-11T01:37:45;2.50;99.90
19342;DHT22;9807;48.258;12.690;2023-03-11T01:40:31;2.60;99.90
19342;DHT22;9807;48.258;12.690;2023-03-11T01:43:02;2.60;99.90
19342;DHT22;9807;48.258;12.690;2023-03-11T01:48:15;2.50;99.90
19342;DHT22;9807;48.258;12.690;2023-03-11T01:50:45;2.60;99.90
19342;DHT22;9807;48.258;12.690;2023-03-11T01:53:13;2.50;99.90
19342;DHT22;9807;48.258;12.690;2023-03-11T01:55:40;2.40;99.90
19342;DHT22;9807;48.258;12.690;2023-03-11T01:58:12;2.50;99.90
19342;DHT22;9807;48.258;12.690;2023-03-11T02:00:41;2.60;99.90
19342;DHT22;9807;48.258;12.690;2023-03-11T02:03:23;2.50;99.90
19342;DHT22;9807;48.258;12.690;2023-03-11T02:05:51;2.70;99.90
19342;DHT22;9807;48.258;12.690;2023-03-11T02:08:20;2.40;99.90
19342;DHT22;9807;48.258;12.690;2023-03-11T02:10:46;2.50;99.90
19342;DHT22;9807;48.258;12.690;2023-03-11T02:13:14;2.40;99.90
19342;DHT22;9807;48.258;12.690;2023-03-11T02:15:40;2.30;99.90
19342;DHT22;9807;48.258;12.690;2023-03-11T02:18:07;2.30;99.90
19342;DHT22;9807;48.258;12.690;2023-03-11T02:21:00;2.30;99.90
19342;DHT22;9807;48.258;12.690;2023-03-11T02:23:35;2.40;99.90
19342;DHT22;9807;48.258;12.690;2023-03-11T02:26:18;2.30;99.90
19342;DHT22;9807;48.258;12.690;2023-03-11T02:28:47;2.30;99.90
19342;DHT22;9807;48.258;12.690;2023-03-11T02:31:15;2.10;99.90
19342;DHT22;9807;48.258;12.690;2023-03-11T02:33:48;2.20;99.90
19342;DHT22;9807;48.258;12.690;2023-03-11T02:36:37;2.20;99.90
19342;DHT22;9807;48.258;12.690;2023-03-11T02:39:05;2.00;99.90
19342;DHT22;9807;48.258;12.690;2023-03-11T02:41:32;2.10;99.90
19342;DHT22;9807;48.258;12.690;2023-03-11T02:44:02;2.10;99.90
19342;DHT22;9807;48.258;12.690;2023-03-11T02:46:32;2.00;99.90
19342;DHT22;9807;48.258;12.690;2023-03-11T02:48:59;2.00;99.90
19342;DHT22;9807;48.258;12.690;2023-03-11T02:51:28;2.00;99.90
19342;DHT22;9807;48.258;12.690;2023-03-11T02:53:57;1.90;99.90
19342;DHT22;9807;48.258;12.690;2023-03-11T02:56:27;2.00;99.90
19342;DHT22;9807;48.258;12.690;2023-03-11T02:58:55;2.00;99.90
19342;DHT22;9807;48.258;12.690;2023-03-11T03:01:27;2.00;99.90
19342;DHT22;9807;48.258;12.690;2023-03-11T03:03:53;1.90;99.90
19342;DHT22;9807;48.258;12.690;2023-03-11T03:06:19;1.80;99.90
19342;DHT22;9807;48.258;12.690;2023-03-11T03:08:48;2.00;99.90
19342;DHT22;9807;48.258;12.690;2023-03-11T03:11:16;1.80;99.90
19342;DHT22;9807;48.258;12.690;2023-03-11T03:13:44;1.80;99.90
19342;DHT22;9807;48.258;12.690;2023-03-11T03:16:10;1.90;99.90
19342;DHT22;9807;48.258;12.690;2023-03-11T03:18:39;1.80;99.90
19342;DHT22;9807;48.258;12.690;2023-03-11T03:21:05;1.90;99.90
19342;DHT22;9807;48.258;12.690;2023-03-11T03:23:31;1.80;99.90
19342;DHT22;9807;48.258;12.690;2023-03-11T03:26:03;1.60;99.90
19342;DHT22;9807;48.258;12.690;2023-03-11T03:28:32;1.80;99.90
19342;DHT22;9807;48.258;12.690;2023-03-11T03:31:09;1.90;99.90
19342;DHT22;9807;48.258;12.690;2023-03-11T03:33:36;2.00;99.90
19342;DHT22;9807;48.258;12.690;2023-03-11T03:36:08;2.00;99.90
19342;DHT22;9807;48.258;12.690;2023-03-11T03:38:41;1.90;99.90
19342;DHT22;9807;48.258;12.690;2023-03-11T03:41:08;1.90;99.90
19342;DHT22;9807;48.258;12.690;2023-03-11T03:43:33;2.00;99.90
19342;DHT22;9807;48.258;12.690;2023-03-11T03:46:01;2.00;99.90
19342;DHT22;9807;48.258;12.690;2023-03-11T03:48:31;1.80;99.90
19342;DHT22;9807;48.258;12.690;2023-03-11T03:51:04;1.80;99.90
19342;DHT22;9807;48.258;12.690;2023-03-11T03:53:34;1.90;99.90
19342;DHT22;9807;48.258;12.690;2023-03-11T03:56:08;2.00;99.90
19342;DHT22;9807;48.258;12.690;2023-03-11T03:58:37;1.90;99.90
19342;DHT22;9807;48.258;12.690;2023-03-11T04:01:09;1.90;99.90
19342;DHT22;9807;48.258;12.690;2023-03-11T04:03:36;1.90;99.90
19342;DHT22;9807;48.258;12.690;2023-03-11T04:06:32;2.00;99.90
19342;DHT22;9807;48.258;12.690;2023-03-11T04:09:00;1.90;99.90
19342;DHT22;9807;48.258;12.690;2023-03-11T04:11:29;1.90;99.90
19342;DHT22;9807;48.258;12.690;2023-03-11T04:13:58;2.00;99.90
19342;DHT22;9807;48.258;12.690;2023-03-11T04:16:27;2.00;99.90
19342;DHT22;9807;48.258;12.690;2023-03-11T04:18:59;2.00;99.90
19342;DHT22;9807;48.258;12.690;2023-03-11T04:21:30;1.90;99.90
19342;DHT22;9807;48.258;12.690;2023-03-11T04:23:59;1.90;99.90
19342;DHT22;9807;48.258;12.690;2023-03-11T04:26:25;1.90;99.90
19342;DHT22;9807;48.258;12.690;2023-03-11T04:28:54;2.00;99.90
19342;DHT22;9807;48.258;12.690;2023-03-11T04:31:25;2.00;99.90
19342;DHT22;9807;48.258;12.690;2023-03-11T04:33:51;1.90;99.90
19342;DHT22;9807;48.258;12.690;2023-03-11T04:36:22;1.70;99.90
19342;DHT22;9807;48.258;12.690;2023-03-11T04:38:48;1.90;99.90
19342;DHT22;9807;48.258;12.690;2023-03-11T04:41:20;1.80;99.90
19342;DHT22;9807;48.258;12.690;2023-03-11T04:43:46;1.80;99.90
19342;DHT22;9807;48.258;12.690;2023-03-11T04:46:12;1.80;99.90
19342;DHT22;9807;48.258;12.690;2023-03-11T04:48:40;1.80;99.90
19342;DHT22;9807;48.258;12.690;2023-03-11T04:51:09;1.80;99.90
19342;DHT22;9807;48.258;12.690;2023-03-11T04:53:35;1.70;99.90
19342;DHT22;9807;48.258;12.690;2023-03-11T04:56:01;1.70;99.90
19342;DHT22;9807;48.258;12.690;2023-03-11T04:58:29;1.80;99.90
19342;DHT22;9807;48.258;12.690;2023-03-11T05:00:55;1.60;99.90
19342;DHT22;9807;48.258;12.690;2023-03-11T05:03:26;1.90;99.90
19342;DHT22;9807;48.258;12.690;2023-03-11T05:05:54;1.80;99.90
19342;DHT22;9807;48.258;12.690;2023-03-11T05:08:25;1.90;99.90
19342;DHT22;9807;48.258;12.690;2023-03-11T05:10:51;1.80;99.90
19342;DHT22;9807;48.258;12.690;2023-03-11T05:13:24;1.90;99.90
19342;DHT22;9807;48.258;12.690;2023-03-11T05:15:50;1.80;99.90
19342;DHT22;9807;48.258;12.690;2023-03-11T05:18:16;1.80;99.90
19342;DHT22;9807;48.258;12.690;2023-03-11T05:20:44;2.00;99.90
19342;DHT22;9807;48.258;12.690;2023-03-11T05:23:10;1.80;99.90
19342;DHT22;9807;48.258;12.690;2023-03-11T05:25:39;1.90;99.90
19342;DHT22;9807;48.258;12.690;2023-03-11T05:28:10;2.00;99.90
19342;DHT22;9807;48.258;12.690;2023-03-11T05:30:36;1.80;99.90
19342;DHT22;9807;48.258;12.690;2023-03-11T05:33:07;1.80;99.90
19342;DHT22;9807;48.258;12.690;2023-03-11T05:35:33;1.80;99.90
19342;DHT22;9807;48.258;12.690;2023-03-11T05:37:58;1.90;99.90
19342;DHT22;9807;48.258;12.690;2023-03-11T05:40:24;1.90;99.90
19342;DHT22;9807;48.258;12.690;2023-03-11T05:42:50;1.70;99.90
19342;DHT22;9807;48.258;12.690;2023-03-11T05:45:18;1.90;99.90
19342;DHT22;9807;48.258;12.690;2023-03-11T05:47:44;1.70;99.90
19342;DHT22;9807;48.258;12.690;2023-03-11T05:50:12;1.80;99.90
19342;DHT22;9807;48.258;12.690;2023-03-11T05:52:38;1.90;99.90
19342;DHT22;9807;48.258;12.690;2023-03-11T05:55:07;1.90;99.90
19342;DHT22;9807;48.258;12.690;2023-03-11T05:57:38;1.80;99.90
19342;DHT22;9807;48.258;12.690;2023-03-11T06:00:06;1.90;99.90
19342;DHT22;9807;48.258;12.690;2023-03-11T06:02:37;1.90;99.90
19342;DHT22;9807;48.258;12.690;2023-03-11T06:05:06;2.00;99.90
19342;DHT22;9807;48.258;12.690;2023-03-11T06:07:38;2.00;99.90
19342;DHT22;9807;48.258;12.690;2023-03-11T06:10:04;1.80;99.90
19342;DHT22;9807;48.258;12.690;2023-03-11T06:12:33;2.00;99.90
19342;DHT22;9807;48.258;12.690;2023-03-11T06:14:59;2.00;99.90
19342;DHT22;9807;48.258;12.690;2023-03-11T06:17:25;1.90;99.90
19342;DHT22;9807;48.258;12.690;2023-03-11T06:19:50;1.90;99.90
19342;DHT22;9807;48.258;12.690;2023-03-11T06:22:18;1.90;99.90
19342;DHT22;9807;48.258;12.690;2023-03-11T06:24:44;2.00;99.90
19342;DHT22;9807;48.258;12.690;2023-03-11T06:27:13;1.90;99.90
19342;DHT22;9807;48.258;12.690;2023-03-11T06:29:41;1.90;99.90
19342;DHT22;9807;48.258;12.690;2023-03-11T06:32:07;1.90;99.90
19342;DHT22;9807;48.258;12.690;2023-03-11T06:34:35;1.90;99.90
19342;DHT22;9807;48.258;12.690;2023-03-11T06:37:02;2.00;99.90
19342;DHT22;9807;48.258;12.690;2023-03-11T06:39:28;1.70;99.90
19342;DHT22;9807;48.258;12.690;2023-03-11T06:41:53;1.70;99.90
19342;DHT22;9807;48.258;12.690;2023-03-11T06:44:19;1.70;99.90
19342;DHT22;9807;48.258;12.690;2023-03-11T06:46:45;1.80;99.90
19342;DHT22;9807;48.258;12.690;2023-03-11T06:49:13;1.50;99.90
19342;DHT22;9807;48.258;12.690;2023-03-11T06:51:39;1.70;99.90
19342;DHT22;9807;48.258;12.690;2023-03-11T06:54:05;1.50;99.90
19342;DHT22;9807;48.258;12.690;2023-03-11T06:56:33;1.50;99.90
19342;DHT22;9807;48.258;12.690;2023-03-11T06:59:01;1.50;99.90
19342;DHT22;9807;48.258;12.690;2023-03-11T07:01:27;1.50;99.90
19342;DHT22;9807;48.258;12.690;2023-03-11T07:03:56;1.40;99.90
19342;DHT22;9807;48.258;12.690;2023-03-11T07:06:24;1.40;99.90
19342;DHT22;9807;48.258;12.690;2023-03-11T07:08:54;1.30;99.90
19342;DHT22;9807;48.258;12.690;2023-03-11T07:11:24;1.30;99.90
19342;DHT22;9807;48.258;12.690;2023-03-11T07:13:51;1.40;99.90
19342;DHT22;9807;48.258;12.690;2023-03-11T07:16:22;1.40;99.90
19342;DHT22;9807;48.258;12.690;2023-03-11T07:18:50;1.30;99.90
19342;DHT22;9807;48.258;12.690;2023-03-11T07:21:25;1.30;99.90
19342;DHT22;9807;48.258;12.690;2023-03-11T07:23:57;1.30;99.90
19342;DHT22;9807;48.258;12.690;2023-03-11T07:26:23;1.30;99.90
19342;DHT22;9807;48.258;12.690;2023-03-11T07:28:54;1.50;99.90
19342;DHT22;9807;48.258;12.690;2023-03-11T07:31:22;1.50;99.90
19342;DHT22;9807;48.258;12.690;2023-03-11T07:33:51;1.80;99.90
19342;DHT22;9807;48.258;12.690;2023-03-11T07:36:22;1.70;99.90
19342;DHT22;9807;48.258;12.690;2023-03-11T07:38:53;1.80;99.90
19342;DHT22;9807;48.258;12.690;2023-03-11T07:41:20;1.80;99.90
19342;DHT22;9807;48.258;12.690;2023-03-11T07:43:46;1.70;99.90
19342;DHT22;9807;48.258;12.690;2023-03-11T07:46:15;1.90;99.90
19342;DHT22;9807;48.258;12.690;2023-03-11T07:48:43;1.90;99.90
19342;DHT22;9807;48.258;12.690;2023-03-11T07:51:33;1.70;99.90
19342;DHT22;9807;48.258;12.690;2023-03-11T07:53:59;2.00;99.90
19342;DHT22;9807;48.258;12.690;2023-03-11T07:56:28;2.00;99.90
19342;DHT22;9807;48.258;12.690;2023-03-11T07:58:56;2.20;99.90
19342;DHT22;9807;48.258;12.690;2023-03-11T08:01:26;2.30;99.90
19342;DHT22;9807;48.258;12.690;2023-03-11T08:03:53;2.10;99.90
19342;DHT22;9807;48.258;12.690;2023-03-11T08:06:33;2.10;99.90
19342;DHT22;9807;48.258;12.690;2023-03-11T08:09:01;1.90;99.90
19342;DHT22;9807;48.258;12.690;2023-03-11T08:11:29;2.00;99.90
19342;DHT22;9807;48.258;12.690;2023-03-11T08:13:55;2.10;99.90
19342;DHT22;9807;48.258;12.690;2023-03-11T08:16:27;2.20;99.90
19342;DHT22;9807;48.258;12.690;2023-03-11T08:18:54;2.30;99.90
19342;DHT22;9807;48.258;12.690;2023-03-11T08:21:22;2.20;99.90
19342;DHT22;9807;48.258;12.690;2023-03-11T08:23:49;2.30;99.90
19342;DHT22;9807;48.258;12.690;2023-03-11T08:26:17;2.20;99.90
19342;DHT22;9807;48.258;12.690;2023-03-11T08:28:51;2.10;99.90
19342;DHT22;9807;48.258;12.690;2023-03-11T08:31:24;2.00;99.90
19342;DHT22;9807;48.258;12.690;2023-03-11T08:34:04;2.10;99.90
19342;DHT22;9807;48.258;12.690;2023-03-11T08:36:31;2.00;99.90
19342;DHT22;9807;48.258;12.690;2023-03-11T08:38:57;2.10;99.90
19342;DHT22;9807;48.258;12.690;2023-03-11T08:41:24;2.30;99.90
19342;DHT22;9807;48.258;12.690;2023-03-11T08:43:50;2.40;99.90
19342;DHT22;9807;48.258;12.690;2023-03-11T08:46:28;2.50;99.90
19342;DHT22;9807;48.258;12.690;2023-03-11T08:48:55;2.50;99.90
19342;DHT22;9807;48.258;12.690;2023-03-11T08:51:21;2.50;99.90
19342;DHT22;9807;48.258;12.690;2023-03-11T08:53:48;2.50;99.90
19342;DHT22;9807;48.258;12.690;2023-03-11T08:56:14;2.40;99.90
19342;DHT22;9807;48.258;12.690;2023-03-11T08:58:39;2.80;99.90
19342;DHT22;9807;48.258;12.690;2023-03-11T09:01:05;2.70;99.90
19342;DHT22;9807;48.258;12.690;2023-03-11T09:03:39;2.70;99.90
19342;DHT22;9807;48.258;12.690;2023-03-11T09:06:08;2.80;99.90
19342;DHT22;9807;48.258;12.690;2023-03-11T09:08:34;2.70;99.90
19342;DHT22;9807;48.258;12.690;2023-03-11T09:11:05;2.70;99.90
19342;DHT22;9807;48.258;12.690;2023-03-11T09:13:34;2.90;99.90
19342;DHT22;9807;48.258;12.690;2023-03-11T09:16:00;2.90;99.90
19342;DHT22;9807;48.258;12.690;2023-03-11T09:18:28;2.90;99.90
19342;DHT22;9807;48.258;12.690;2023-03-11T09:20:59;3.00;99.90
19342;DHT22;9807;48.258;12.690;2023-03-11T09:23:25;3.00;99.90
19342;DHT22;9807;48.258;12.690;2023-03-11T09:25:50;3.00;99.90
19342;DHT22;9807;48.258;12.690;2023-03-11T09:28:16;3.00;99.90
19342;DHT22;9807;48.258;12.690;2023-03-11T09:30:42;3.00;99.90
19342;DHT22;9807;48.258;12.690;2023-03-11T09:33:08;3.00;99.90
19342;DHT22;9807;48.258;12.690;2023-03-11T09:35:36;3.30;99.90
19342;DHT22;9807;48.258;12.690;2023-03-11T09:38:05;3.20;99.90
19342;DHT22;9807;48.258;12.690;2023-03-11T09:40:53;3.10;99.90
19342;DHT22;9807;48.258;12.690;2023-03-11T09:43:37;3.20;99.90
19342;DHT22;9807;48.258;12.690;2023-03-11T09:52:12;3.80;99.90
19342;DHT22;9807;48.258;12.690;2023-03-11T09:54:42;3.70;99.90
19342;DHT22;9807;48.258;12.690;2023-03-11T09:57:16;3.50;99.90
19342;DHT22;9807;48.258;12.690;2023-03-11T09:59:44;3.60;99.90
19342;DHT22;9807;48.258;12.690;2023-03-11T10:02:14;3.50;99.90
19342;DHT22;9807;48.258;12.690;2023-03-11T10:08:03;3.40;99.90
19342;DHT22;9807;48.258;12.690;2023-03-11T10:10:40;3.30;99.90
19342;DHT22;9807;48.258;12.690;2023-03-11T10:16:34;3.30;99.90
19342;DHT22;9807;48.258;12.690;2023-03-11T10:22:26;3.30;99.90
19342;DHT22;9807;48.258;12.690;2023-03-11T10:25:14;3.30;99.90
19342;DHT22;9807;48.258;12.690;2023-03-11T10:28:07;3.30;99.90
19342;DHT22;9807;48.258;12.690;2023-03-11T10:30:49;3.40;99.90
19342;DHT22;9807;48.258;12.690;2023-03-11T10:33:45;3.40;99.90
19342;DHT22;9807;48.258;12.690;2023-03-11T10:36:25;3.50;99.90
19342;DHT22;9807;48.258;12.690;2023-03-11T10:38:54;3.40;99.90
19342;DHT22;9807;48.258;12.690;2023-03-11T10:41:36;3.30;99.90
19342;DHT22;9807;48.258;12.690;2023-03-11T10:44:17;3.60;99.90
19342;DHT22;9807;48.258;12.690;2023-03-11T10:46:44;3.70;99.90
19342;DHT22;9807;48.258;12.690;2023-03-11T10:49:14;3.60;99.90
19342;DHT22;9807;48.258;12.690;2023-03-11T10:51:44;3.80;99.90
